Kalevala, Russia
Current Conditions -  °F | °C
As of 10:50 AM on Friday 19 Dec 2014 (Local Time) from EFKS Reporting Station
Snow Showers Snow Showers  
Wind Chill:   Ceiling: 400
Heat Index:   Visibility: 0.18mi
Dew Point:   Wind: 3mph
Humidity: 92%   Direction: 70°ENE
Pressure: 29.18"   Gusts: NA
Location:  65.2°N, 31.17°E
Report Text: EFKS 190750Z AUTO 07003KT 0300 -SHSN FZFG VV004 M14/M15 Q0988
Loading
Personal Weather Stations






























Interactive Weather Map New forecast layout! Learn more

10-Day Weather Forecast

Advertisements
Track Severe Weather on mobile